Guenes, Spain

1:22 PM CEST on August 05, 2015 (GMT +0200)
EB2EMZ Joseba Vivaracho | | Change Station
CLOSE
Current Station
Personal Weather Station
Location: Laudio, ARABA
Elevation: 410 ft
Nearby Weather Stations

Elev 410 ft 43.14 °N, 2.96 °W | Updated 30 seconds ago

Partly Cloudy
Partly Cloudy
81.5 °F
Feels Like 84 °F
N
17.3
Wind Variable Wind from NE
Gusts 17.3 mph

Today
High -- | Low -- °F
--% Chance of Precip.
Yesterday
High -- | Low -- °F
Precip. -- in
7:06 AM 9:29 PM
Waning Gibbous, 68% visible
Pressure 29.92 in
Visibility 6.2 miles
Clouds Few 2500 ft
Heat Index 84 °F
Dew Point 66 °F
Humidity 59%
Rainfall 0.00 in
Snow Depth Not available.
UV 10 out of 12
Pollen Not available.
Air Quality Not available.
Flu Activity Not available.
METAR LEBB 051100Z 32013KT 290V360 9999 FEW025 24/19 Q1013 NOSIG

More Conditions Fewer Conditions

Pressure 29.92 in
Visibility 6.2 miles
Clouds Few 2500 ft
Heat Index 84 °F
Dew Point 66 °F
Humidity 59%
Rainfall 0.00 in
Snow Depth Not available.
UV 10 out of 12
Pollen Not available.
Air Quality Not available.
Flu Activity Not available.
METAR LEBB 051100Z 32013KT 290V360 9999 FEW025 24/19 Q1013 NOSIG

More Conditions Fewer Conditions

10-Day Weather Forecast

×

Almanac

Astronomy

Aug. 05, 2015 Rise Set
Actual Time
Civil Twilight
Nautical Twilight
Astronomical Twilight
Moon
Length of Visible Light
Length of Day
Tomorrow will be .
, % of the Moon is Illuminated

Today's Extremes

Country Highs Country Lows

Community

WunderPhotos

Upload Photos

1,844,133 photos uploaded!

WunderBlogs® & News

Nearby

Air Quality

  Air Quality AQ Index Pollutant
Not available.

Snow Depth

Station Depth Elevation

Earthquake Activity

City Distance Mag. Time & Date
Minimum magnitude displayed is 2.5.

Coastal Water Temperatures

Place Temperature

Stations

Nearby Weather Stations

Station Location Temp. Windchill Dew Point Humidity Wind Precip. Elev Updated Type